Plaza Tower, Tennessee
Current Conditions -  °F | °C
As of 8:53 PM on Tuesday 25 Nov 2014 (Local Time) from KTYS Reporting Station
Clear Clear  
Wind Chill: 44°   Ceiling: Unl
Heat Index: 47°   Visibility: 10mi
Dew Point: 34°   Wind: 7mph
Humidity: 61%   Direction: 340°NNW
Pressure: 30.07"   Gusts: NA
Location:  35.9605°N, 83.9208°W
Report Text: KTYS 260153Z 34006KT 10SM CLR 08/01 A3007 RMK AO2 SLP185 T00830011
Loading
Personal Weather Stations






























Interactive Weather Map New forecast layout! Learn more

10-Day Weather Forecast

Advertisements
Track Severe Weather on mobile